createdAt,value
2022-09-29T00:00:17.631Z,3.40
2022-09-29T00:02:44.272Z,4.13
2022-09-29T00:05:10.990Z,4.05
2022-09-29T00:07:37.909Z,4.07
2022-09-29T00:10:05.122Z,4.35
2022-09-29T00:12:31.928Z,3.88
2022-09-29T00:14:58.699Z,3.78
2022-09-29T00:17:25.619Z,4.47
2022-09-29T00:19:52.413Z,4.55
2022-09-29T00:22:19.359Z,4.90
2022-09-29T00:24:47.464Z,4.47
2022-09-29T00:27:20.233Z,4.85
2022-09-29T00:29:47.438Z,4.80
2022-09-29T00:32:14.673Z,4.93
2022-09-29T00:34:41.636Z,4.80
2022-09-29T00:37:08.323Z,4.57
2022-09-29T00:39:35.185Z,4.90
2022-09-29T00:42:02.022Z,4.40
2022-09-29T00:45:06.891Z,4.40
2022-09-29T00:47:36.457Z,4.70
2022-09-29T00:50:26.675Z,5.45
2022-09-29T00:52:59.391Z,4.75
2022-09-29T00:55:33.934Z,4.75
2022-09-29T00:58:09.386Z,5.20
2022-09-29T01:00:36.996Z,5.43
2022-09-29T01:03:15.699Z,6.07
2022-09-29T01:05:50.151Z,5.53
2022-09-29T01:08:24.628Z,5.75
2022-09-29T01:10:53.316Z,6.65
2022-09-29T01:13:22.385Z,6.95
2022-09-29T01:15:49.120Z,5.63
2022-09-29T01:18:16.050Z,5.70
2022-09-29T01:21:15.307Z,5.13
2022-09-29T01:24:09.873Z,4.65
2022-09-29T01:26:36.700Z,5.60
2022-09-29T01:29:33.685Z,4.68
2022-09-29T01:32:12.391Z,4.95
2022-09-29T01:35:05.292Z,4.97
2022-09-29T01:37:59.117Z,5.10
2022-09-29T01:40:57.956Z,5.30
2022-09-29T01:43:32.041Z,4.88
2022-09-29T01:46:04.806Z,5.03
2022-09-29T01:48:37.692Z,4.53
2022-09-29T01:51:15.925Z,5.88
2022-09-29T01:53:56.891Z,5.68
2022-09-29T01:56:34.098Z,6.45
2022-09-29T01:59:24.602Z,6.18
2022-09-29T02:02:00.812Z,6.45
2022-09-29T02:04:33.908Z,6.00
2022-09-29T02:07:08.682Z,6.78
2022-09-29T02:09:42.019Z,6.47
2022-09-29T02:12:13.580Z,6.53
2022-09-29T02:14:44.986Z,6.88
2022-09-29T02:17:20.158Z,7.00
2022-09-29T02:19:51.130Z,6.88
2022-09-29T02:22:19.731Z,6.22
2022-09-29T02:24:46.813Z,7.35
2022-09-29T02:27:13.904Z,6.43
2022-09-29T02:29:41.226Z,7.47
2022-09-29T02:32:10.089Z,7.85
2022-09-29T02:34:42.247Z,7.18
2022-09-29T02:37:34.185Z,6.93
2022-09-29T02:40:15.833Z,7.20
2022-09-29T02:43:20.950Z,7.20
2022-09-29T02:45:57.699Z,6.60
2022-09-29T02:48:33.266Z,7.70
2022-09-29T02:51:21.619Z,6.82
2022-09-29T02:54:09.449Z,7.28
2022-09-29T02:56:47.310Z,7.30
2022-09-29T02:59:20.716Z,7.20
2022-09-29T03:01:53.305Z,7.65
2022-09-29T03:04:22.077Z,8.68
2022-09-29T03:06:50.342Z,8.27
2022-09-29T03:09:17.587Z,9.20
2022-09-29T03:11:44.367Z,8.68
2022-09-29T03:14:11.494Z,9.00
2022-09-29T03:16:38.405Z,9.35
2022-09-29T03:19:05.585Z,8.45
2022-09-29T03:21:32.583Z,9.13
2022-09-29T03:23:59.986Z,8.52
2022-09-29T03:26:26.924Z,9.10
2022-09-29T03:28:54.135Z,8.93
2022-09-29T03:31:20.982Z,9.07
2022-09-29T03:33:47.868Z,9.20
2022-09-29T03:36:14.565Z,9.00
2022-09-29T03:38:41.302Z,8.90
2022-09-29T03:41:09.047Z,9.52
2022-09-29T03:43:35.837Z,10.20
2022-09-29T03:46:02.761Z,9.02
2022-09-29T03:48:31.404Z,10.52
2022-09-29T03:50:58.210Z,9.35
2022-09-29T03:53:25.133Z,11.18
2022-09-29T03:55:52.133Z,11.10
2022-09-29T03:58:18.924Z,10.38
2022-09-29T04:00:47.502Z,11.02
2022-09-29T04:03:14.138Z,11.88
2022-09-29T04:05:41.041Z,11.68
2022-09-29T04:08:08.935Z,13.20
2022-09-29T04:10:36.667Z,11.55
2022-09-29T04:13:04.598Z,12.55
2022-09-29T04:15:32.006Z,11.18
2022-09-29T04:17:58.870Z,11.60
2022-09-29T04:20:26.226Z,12.80
2022-09-29T04:22:53.275Z,11.65
2022-09-29T04:25:20.086Z,12.02
2022-09-29T04:27:46.924Z,12.95
2022-09-29T04:30:13.802Z,13.85
2022-09-29T04:32:40.710Z,12.93
2022-09-29T04:35:08.604Z,12.15
2022-09-29T04:37:35.624Z,13.73
2022-09-29T04:40:03.669Z,13.27
2022-09-29T04:42:30.400Z,12.90
2022-09-29T04:44:57.406Z,12.13
2022-09-29T04:47:24.089Z,12.23
2022-09-29T04:49:50.882Z,13.20
2022-09-29T04:52:17.607Z,12.50
2022-09-29T04:54:44.409Z,13.05
2022-09-29T04:57:11.423Z,12.45
2022-09-29T04:59:38.133Z,12.48
2022-09-29T05:02:04.977Z,12.23
2022-09-29T05:04:31.732Z,11.80
2022-09-29T05:06:58.758Z,11.60
2022-09-29T05:09:27.823Z,11.52
2022-09-29T05:11:56.640Z,12.73
2022-09-29T05:14:23.482Z,12.95
2022-09-29T05:16:50.207Z,12.13
2022-09-29T05:19:17.021Z,12.90
2022-09-29T05:21:43.946Z,13.90
2022-09-29T05:24:11.605Z,13.02
2022-09-29T05:26:38.487Z,12.57
2022-09-29T05:29:05.567Z,14.25
2022-09-29T05:31:32.537Z,14.75
2022-09-29T05:33:59.418Z,13.73
2022-09-29T05:36:26.302Z,13.57
2022-09-29T05:38:53.114Z,15.00
2022-09-29T05:41:22.954Z,16.02
2022-09-29T05:43:50.478Z,14.85
2022-09-29T05:46:17.703Z,15.63
2022-09-29T05:48:45.417Z,14.05
2022-09-29T05:51:21.932Z,15.63
2022-09-29T05:53:50.449Z,16.38
2022-09-29T05:56:20.001Z,15.75
2022-09-29T05:58:46.626Z,15.35
2022-09-29T06:01:15.847Z,13.63
2022-09-29T06:03:43.283Z,12.63
2022-09-29T06:06:18.399Z,14.98
2022-09-29T06:08:46.316Z,14.80
2022-09-29T06:11:24.735Z,14.13
2022-09-29T06:13:53.463Z,13.25
2022-09-29T06:16:23.171Z,12.65
2022-09-29T06:18:50.555Z,12.65
2022-09-29T06:21:19.947Z,11.70
2022-09-29T06:23:47.083Z,13.45
2022-09-29T06:26:18.078Z,12.43
2022-09-29T06:28:48.645Z,12.48
2022-09-29T06:31:18.575Z,11.90
2022-09-29T06:33:45.931Z,12.23
2022-09-29T06:36:37.134Z,11.70
2022-09-29T06:39:09.865Z,12.93
2022-09-29T06:41:36.543Z,13.73
2022-09-29T06:44:03.656Z,13.80
2022-09-29T06:46:30.893Z,13.88
2022-09-29T06:48:57.804Z,12.65
2022-09-29T06:51:36.938Z,11.23
2022-09-29T06:54:12.145Z,10.73
2022-09-29T06:56:40.051Z,11.85
2022-09-29T06:59:07.835Z,12.13
2022-09-29T07:01:34.772Z,10.90
2022-09-29T07:04:02.542Z,12.02
2022-09-29T07:06:29.944Z,12.60
2022-09-29T07:08:58.426Z,13.00
2022-09-29T07:11:26.497Z,12.50
2022-09-29T07:13:54.902Z,11.82
2022-09-29T07:16:26.424Z,11.82
2022-09-29T07:18:53.595Z,13.23
2022-09-29T07:21:21.518Z,12.90
2022-09-29T07:23:48.693Z,12.88
2022-09-29T07:26:17.078Z,13.68
2022-09-29T07:28:45.442Z,13.45
2022-09-29T07:31:18.404Z,13.00
2022-09-29T07:33:47.225Z,13.93
2022-09-29T07:36:15.856Z,13.18
2022-09-29T07:38:45.836Z,12.52
2022-09-29T07:41:12.554Z,13.80
2022-09-29T07:43:39.997Z,13.43
2022-09-29T07:46:08.692Z,14.40
2022-09-29T07:48:38.105Z,14.70
2022-09-29T07:51:11.927Z,14.10
2022-09-29T07:53:39.549Z,14.43
2022-09-29T07:56:09.357Z,14.50
2022-09-29T07:58:38.122Z,14.77
2022-09-29T08:01:10.371Z,14.32
2022-09-29T08:03:39.070Z,12.93
2022-09-29T08:06:06.836Z,14.52
2022-09-29T08:08:39.145Z,15.18
2022-09-29T08:11:27.794Z,13.57
2022-09-29T08:13:57.746Z,13.40
2022-09-29T08:16:24.627Z,14.23
2022-09-29T08:18:51.445Z,13.50
2022-09-29T08:21:18.281Z,13.88
2022-09-29T08:23:45.590Z,13.55
2022-09-29T08:26:17.711Z,14.23
2022-09-29T08:28:45.783Z,13.77
2022-09-29T08:31:21.570Z,13.07
2022-09-29T08:33:52.789Z,14.32
2022-09-29T08:36:21.116Z,14.55
2022-09-29T08:38:53.922Z,15.13
2022-09-29T08:41:51.859Z,15.07
2022-09-29T08:44:39.508Z,13.55
2022-09-29T08:47:43.969Z,13.75
2022-09-29T08:50:35.916Z,13.95
2022-09-29T08:53:24.304Z,13.85
2022-09-29T08:56:20.334Z,13.55
2022-09-29T08:58:47.226Z,14.18
2022-09-29T09:01:29.655Z,16.38
2022-09-29T09:04:11.688Z,14.98
2022-09-29T09:06:57.719Z,15.35
2022-09-29T09:09:43.152Z,13.90
2022-09-29T09:12:15.874Z,14.80
2022-09-29T09:15:17.196Z,15.05
2022-09-29T09:18:22.724Z,14.55
2022-09-29T09:21:15.294Z,15.32
2022-09-29T09:24:04.691Z,14.75
2022-09-29T09:26:38.174Z,15.65
2022-09-29T09:29:14.156Z,16.00
2022-09-29T09:31:53.463Z,15.43
2022-09-29T09:34:41.369Z,15.27
2022-09-29T09:37:32.419Z,13.43
2022-09-29T09:40:15.329Z,13.57
2022-09-29T09:42:46.902Z,12.50
2022-09-29T09:45:32.478Z,13.13
2022-09-29T09:48:31.881Z,12.55
2022-09-29T09:51:01.884Z,12.80
2022-09-29T09:53:43.075Z,11.88
2022-09-29T09:56:22.495Z,11.93
2022-09-29T09:59:04.624Z,13.68
2022-09-29T10:01:31.531Z,11.70
2022-09-29T10:04:01.219Z,13.35
2022-09-29T10:06:28.371Z,12.68
2022-09-29T10:08:55.410Z,12.45
2022-09-29T10:11:31.890Z,11.45
2022-09-29T10:14:14.519Z,10.05
2022-09-29T10:16:48.842Z,9.93
2022-09-29T10:19:22.467Z,8.65
2022-09-29T10:21:50.060Z,8.05
2022-09-29T10:24:33.199Z,7.47
2022-09-29T10:27:03.209Z,7.35
2022-09-29T10:29:45.049Z,6.97
2022-09-29T10:32:22.076Z,6.68
2022-09-29T10:35:02.191Z,6.70
2022-09-29T10:37:38.797Z,7.40
2022-09-29T10:40:08.689Z,7.38
2022-09-29T10:42:38.315Z,6.75
2022-09-29T10:45:04.971Z,7.70
2022-09-29T10:47:33.333Z,7.18
2022-09-29T10:50:21.702Z,8.43
2022-09-29T10:52:53.208Z,7.65
2022-09-29T10:55:28.654Z,6.97
2022-09-29T10:57:58.634Z,6.28
2022-09-29T11:00:36.582Z,6.05
2022-09-29T11:03:06.721Z,5.90
2022-09-29T11:05:34.366Z,7.28
2022-09-29T11:08:01.375Z,6.75
2022-09-29T11:10:35.598Z,7.35
2022-09-29T11:13:20.311Z,6.18
2022-09-29T11:15:47.083Z,5.60
2022-09-29T11:18:38.542Z,7.82
2022-09-29T11:21:17.134Z,7.43
2022-09-29T11:23:54.571Z,5.60
2022-09-29T11:26:43.346Z,5.22
2022-09-29T11:29:28.956Z,5.78
2022-09-29T11:32:23.530Z,5.63
2022-09-29T11:34:52.992Z,6.38
2022-09-29T11:37:37.452Z,4.65
2022-09-29T11:40:17.997Z,4.43
2022-09-29T11:42:44.804Z,4.13
2022-09-29T11:48:35.405Z,3.47
2022-09-29T11:51:10.487Z,3.10
2022-09-29T11:53:40.721Z,3.47
2022-09-29T11:56:19.702Z,2.58
2022-09-29T11:59:10.272Z,2.00
2022-09-29T12:02:18.225Z,1.20
2022-09-29T12:04:57.128Z,1.73
2022-09-29T12:07:39.087Z,1.50
2022-09-29T12:10:26.132Z,2.40
2022-09-29T12:13:02.022Z,2.17
2022-09-29T12:15:55.903Z,2.00
2022-09-29T12:18:41.746Z,2.10
2022-09-29T12:21:14.161Z,2.25
2022-09-29T12:23:46.111Z,2.60
2022-09-29T12:26:19.763Z,1.98
2022-09-29T12:29:21.916Z,2.50
2022-09-29T12:31:52.375Z,2.33
2022-09-29T12:34:36.337Z,2.33
2022-09-29T12:37:27.582Z,2.10
2022-09-29T12:40:17.279Z,2.63
2022-09-29T12:42:58.079Z,2.22
2022-09-29T12:45:34.820Z,2.92
2022-09-29T12:48:20.942Z,2.28
2022-09-29T12:51:26.342Z,2.55
2022-09-29T12:54:31.256Z,2.80
2022-09-29T12:57:15.334Z,2.53
2022-09-29T12:59:56.126Z,2.83
2022-09-29T13:02:22.753Z,2.88
2022-09-29T13:05:01.845Z,2.50
2022-09-29T13:07:40.300Z,2.80
2022-09-29T13:10:31.080Z,2.80
2022-09-29T13:13:44.849Z,2.50
2022-09-29T13:16:11.500Z,1.70
2022-09-29T13:19:20.235Z,1.38
2022-09-29T13:22:15.033Z,1.48
2022-09-29T13:24:56.246Z,1.35
2022-09-29T13:27:34.275Z,1.40
2022-09-29T13:30:33.325Z,1.00
2022-09-29T13:33:11.123Z,1.20
2022-09-29T13:35:43.373Z,1.00
2022-09-29T13:38:30.440Z,1.00
2022-09-29T13:41:39.697Z,1.67
2022-09-29T13:44:22.064Z,1.77
2022-09-29T13:46:48.958Z,1.50
2022-09-29T13:49:28.325Z,1.73
2022-09-29T13:52:16.679Z,1.55
2022-09-29T13:54:44.181Z,1.80
2022-09-29T13:57:16.752Z,1.40
2022-09-29T13:59:47.572Z,1.45
2022-09-29T14:02:47.264Z,1.52
2022-09-29T14:05:23.180Z,1.35
2022-09-29T14:07:56.091Z,2.00
2022-09-29T14:10:47.291Z,1.77
2022-09-29T14:13:33.962Z,1.90
2022-09-29T14:16:25.583Z,1.70
2022-09-29T14:19:01.753Z,2.22
2022-09-29T14:21:54.535Z,2.30
2022-09-29T14:24:37.336Z,2.33
2022-09-29T14:27:27.573Z,2.15
2022-09-29T14:30:04.243Z,2.40
2022-09-29T14:33:01.769Z,2.30
2022-09-29T14:35:29.903Z,2.17
2022-09-29T14:38:08.545Z,2.33
2022-09-29T14:40:35.515Z,2.00
2022-09-29T14:43:16.840Z,2.08
2022-09-29T14:46:20.109Z,2.10
2022-09-29T14:49:42.580Z,2.08
2022-09-29T14:52:18.546Z,2.15
2022-09-29T14:58:14.661Z,1.80
2022-09-29T15:00:51.922Z,1.77
2022-09-29T15:03:34.918Z,2.15
2022-09-29T15:06:16.745Z,2.03
2022-09-29T15:08:53.676Z,1.90
2022-09-29T15:11:39.048Z,1.77
2022-09-29T15:14:20.880Z,2.13
2022-09-29T15:17:26.182Z,1.58
2022-09-29T15:20:01.814Z,2.30
2022-09-29T15:22:56.167Z,1.90
2022-09-29T15:25:30.924Z,1.73
2022-09-29T15:28:15.849Z,2.20
2022-09-29T15:30:43.572Z,1.67
2022-09-29T15:33:24.650Z,1.73
2022-09-29T15:35:56.573Z,1.40
2022-09-29T15:38:23.457Z,1.70
2022-09-29T15:40:59.295Z,1.80
2022-09-29T15:43:29.253Z,1.80
2022-09-29T15:46:02.787Z,1.67
2022-09-29T15:48:31.268Z,1.27
2022-09-29T15:50:58.511Z,1.60
2022-09-29T15:53:27.757Z,1.50
2022-09-29T15:55:55.770Z,1.60
2022-09-29T15:58:31.579Z,1.92
2022-09-29T16:00:59.672Z,1.77
2022-09-29T16:03:52.117Z,2.28
2022-09-29T16:06:22.396Z,1.90
2022-09-29T16:08:55.438Z,2.10
2022-09-29T16:11:33.123Z,2.28
2022-09-29T16:14:09.362Z,2.15
2022-09-29T16:16:41.225Z,2.13
2022-09-29T16:19:16.064Z,2.40
2022-09-29T16:21:43.277Z,2.38
2022-09-29T16:24:18.139Z,2.35
2022-09-29T16:26:46.692Z,2.30
2022-09-29T16:29:16.303Z,2.28
2022-09-29T16:31:44.907Z,1.98
2022-09-29T16:34:23.429Z,2.03
2022-09-29T16:36:54.445Z,2.13
2022-09-29T16:39:24.680Z,1.98
2022-09-29T16:41:57.239Z,2.30
2022-09-29T16:44:32.689Z,2.05
2022-09-29T16:47:30.300Z,2.38
2022-09-29T16:50:05.243Z,2.60
2022-09-29T16:52:32.029Z,2.53
2022-09-29T16:55:22.423Z,2.20
2022-09-29T16:57:56.989Z,2.30
2022-09-29T17:00:23.788Z,2.40
2022-09-29T17:03:06.089Z,2.47
2022-09-29T17:05:43.755Z,2.80
2022-09-29T17:08:16.541Z,2.40
2022-09-29T17:10:43.240Z,2.10
2022-09-29T17:13:14.014Z,2.20
2022-09-29T17:15:41.285Z,2.55
2022-09-29T17:18:12.178Z,2.90
2022-09-29T17:20:39.709Z,3.90
2022-09-29T17:23:07.757Z,3.28
2022-09-29T17:25:37.498Z,3.25
2022-09-29T17:28:14.910Z,3.03
2022-09-29T17:30:44.471Z,3.53
2022-09-29T17:33:15.416Z,3.30
2022-09-29T17:35:56.021Z,3.58
2022-09-29T17:38:24.254Z,3.80
2022-09-29T17:41:02.586Z,3.15
2022-09-29T17:43:31.792Z,4.22
2022-09-29T17:46:00.284Z,5.60
2022-09-29T17:48:29.775Z,4.97
2022-09-29T17:50:59.605Z,4.25
2022-09-29T17:53:26.589Z,4.40
2022-09-29T17:55:58.653Z,4.80
2022-09-29T17:58:25.508Z,5.18
2022-09-29T18:00:54.413Z,5.50
2022-09-29T18:03:21.742Z,6.70
2022-09-29T18:05:56.871Z,6.15
2022-09-29T18:08:25.908Z,6.20
2022-09-29T18:10:57.757Z,6.90
2022-09-29T18:13:29.730Z,7.47
2022-09-29T18:16:01.674Z,8.05
2022-09-29T18:18:28.800Z,8.23
2022-09-29T18:20:55.655Z,9.95
2022-09-29T18:23:26.567Z,14.80
2022-09-29T18:25:53.812Z,16.10
2022-09-29T18:28:21.524Z,16.13
2022-09-29T18:30:54.217Z,17.80
2022-09-29T18:33:21.350Z,21.05
2022-09-29T18:35:54.935Z,28.92
2022-09-29T18:38:22.278Z,33.92
2022-09-29T18:40:52.499Z,35.10
2022-09-29T18:43:23.715Z,34.05
2022-09-29T18:45:51.938Z,25.90
2022-09-29T18:48:18.878Z,29.83
2022-09-29T18:50:48.181Z,23.92
2022-09-29T18:53:19.656Z,21.42
2022-09-29T18:55:47.257Z,20.17
2022-09-29T18:58:18.818Z,19.58
2022-09-29T19:00:53.785Z,19.67
2022-09-29T19:03:21.475Z,22.10
2022-09-29T19:05:48.283Z,21.55
2022-09-29T19:08:16.640Z,23.73
2022-09-29T19:10:51.972Z,20.00
2022-09-29T19:13:19.755Z,19.67
2022-09-29T19:15:47.091Z,17.80
2022-09-29T19:18:23.835Z,26.42
2022-09-29T19:20:52.856Z,24.52
2022-09-29T19:23:19.711Z,20.80
2022-09-29T19:25:48.517Z,18.98
2022-09-29T19:28:16.523Z,16.63
2022-09-29T19:30:44.628Z,16.85
2022-09-29T19:33:16.391Z,14.65
2022-09-29T19:35:50.647Z,16.35
2022-09-29T19:38:18.798Z,13.63
2022-09-29T19:40:47.143Z,13.98
2022-09-29T19:43:14.564Z,20.05
2022-09-29T19:45:43.123Z,15.57
2022-09-29T19:48:14.557Z,13.85
2022-09-29T19:51:00.032Z,15.32
2022-09-29T19:53:26.993Z,14.07
2022-09-29T19:55:53.708Z,13.82
2022-09-29T19:58:20.581Z,12.98
2022-09-29T20:00:47.801Z,12.95
2022-09-29T20:03:15.093Z,13.07
2022-09-29T20:05:42.331Z,12.90
2022-09-29T20:08:10.075Z,12.63
2022-09-29T20:10:36.961Z,12.70
2022-09-29T20:13:03.976Z,13.00
2022-09-29T20:15:30.642Z,11.80
2022-09-29T20:17:57.307Z,12.07
2022-09-29T20:20:24.226Z,19.73
2022-09-29T20:22:53.535Z,13.85
2022-09-29T20:25:21.472Z,12.68
2022-09-29T20:27:51.907Z,12.93
2022-09-29T20:30:20.776Z,14.57
2022-09-29T20:32:48.487Z,13.40
2022-09-29T20:35:15.277Z,12.93
2022-09-29T20:37:43.153Z,13.68
2022-09-29T20:40:10.558Z,12.95
2022-09-29T20:42:38.514Z,13.27
2022-09-29T20:45:07.947Z,13.43
2022-09-29T20:47:36.408Z,11.30
2022-09-29T20:50:05.249Z,12.27
2022-09-29T20:52:32.237Z,12.20
2022-09-29T20:55:00.948Z,12.07
2022-09-29T20:57:27.936Z,11.75
2022-09-29T20:59:55.696Z,11.35
2022-09-29T21:02:22.649Z,11.40
2022-09-29T21:04:49.570Z,12.23
2022-09-29T21:07:36.594Z,11.73
2022-09-29T21:10:05.597Z,11.52
2022-09-29T21:12:32.755Z,11.18
2022-09-29T21:15:00.120Z,12.52
2022-09-29T21:17:27.698Z,14.68
2022-09-29T21:19:54.740Z,13.55
2022-09-29T21:22:26.617Z,15.32
2022-09-29T21:24:54.452Z,13.93
2022-09-29T21:27:21.326Z,13.55
2022-09-29T21:29:48.047Z,14.15
2022-09-29T21:32:15.776Z,12.85
2022-09-29T21:34:42.586Z,13.23
2022-09-29T21:37:10.218Z,12.60
2022-09-29T21:39:36.970Z,11.77
2022-09-29T21:42:04.414Z,11.88
2022-09-29T21:44:31.147Z,12.18
2022-09-29T21:46:57.935Z,11.15
2022-09-29T21:49:24.635Z,11.38
2022-09-29T21:51:51.538Z,11.18
2022-09-29T21:54:25.289Z,12.65
2022-09-29T21:56:53.114Z,13.35
2022-09-29T21:59:21.002Z,19.50
2022-09-29T22:01:47.860Z,18.40
2022-09-29T22:04:15.025Z,20.05
2022-09-29T22:06:45.060Z,15.07
2022-09-29T22:09:16.080Z,14.52
2022-09-29T22:11:42.844Z,12.68
2022-09-29T22:14:12.496Z,12.00
2022-09-29T22:16:40.090Z,11.23
2022-09-29T22:19:24.175Z,10.88
2022-09-29T22:21:52.824Z,10.30
2022-09-29T22:24:19.566Z,10.88
2022-09-29T22:26:46.359Z,10.43
2022-09-29T22:29:13.452Z,10.73
2022-09-29T22:31:40.938Z,10.07
2022-09-29T22:34:08.391Z,11.13
2022-09-29T22:36:35.824Z,10.55
2022-09-29T22:39:04.887Z,9.68
2022-09-29T22:41:33.252Z,10.10
2022-09-29T22:44:00.398Z,10.05
2022-09-29T22:46:28.995Z,9.77
2022-09-29T22:48:56.220Z,9.70
2022-09-29T22:51:23.157Z,9.23
2022-09-29T22:53:50.347Z,9.05
2022-09-29T22:56:20.703Z,8.70
2022-09-29T22:58:49.438Z,8.05
2022-09-29T23:01:18.007Z,8.65
2022-09-29T23:03:45.802Z,8.80
2022-09-29T23:06:13.447Z,9.70
2022-09-29T23:08:40.766Z,9.63
2022-09-29T23:11:08.794Z,10.02
2022-09-29T23:13:37.305Z,9.88
2022-09-29T23:16:10.934Z,9.32
2022-09-29T23:18:44.056Z,9.38
2022-09-29T23:21:13.764Z,9.70
2022-09-29T23:23:40.803Z,10.25
2022-09-29T23:26:07.778Z,9.27
2022-09-29T23:28:34.496Z,9.73
2022-09-29T23:31:05.679Z,9.40
2022-09-29T23:33:32.993Z,9.48
2022-09-29T23:36:11.943Z,10.00
2022-09-29T23:38:58.505Z,9.18
2022-09-29T23:41:27.396Z,8.50
2022-09-29T23:43:55.730Z,9.35
2022-09-29T23:46:23.724Z,10.15
2022-09-29T23:48:50.809Z,9.00
2022-09-29T23:51:18.894Z,7.97
2022-09-29T23:53:46.022Z,9.25
2022-09-29T23:56:12.828Z,8.90
2022-09-29T23:58:39.645Z,9.05
